Flight Track Log - Related Links

Times and Time Zones

All times are in EDT time to prevent confusion due to time zone crossing. See the ASQ5225 flight status page for this flight to view local times or setup timezone preferences in your user account.

Time Position Orientation Groundspeed Altitude Reporting Facility
EDT Latitude Longitude Course Direction KTS MPH feet Rate Location/Type
08:05PM 33.6517 -84.4781 293° West 414 476 2,500  Level Atlanta Center
08:06PM 33.6742 -84.5406 293° West 286 329 4,600 2,150 Climbing Atlanta Center
08:07PM 33.7242 -84.5858 323° Northwest 227 261 6,800 2,350 Climbing Atlanta Center
08:08PM 33.8014 -84.5839 North 269 310 9,300 2,505 Climbing Atlanta Center
08:09PM 33.8500 -84.5833 North 278 320 10,600 1,650 Climbing Atlanta TRACON
08:10PM 33.9808 -84.6150 349° North 344 396 12,600 1,450 Climbing Atlanta Center
08:11PM 34.0703 -84.6456 344° North 344 396 14,200 1,500 Climbing Atlanta Center
08:12PM 34.1642 -84.6814 342° North 348 400 15,600 1,400 Climbing Atlanta Center
08:13PM 34.2600 -84.7150 344° North 353 406 17,000 1,450 Climbing Atlanta Center
08:14PM 34.3536 -84.7558 340° North 353 406 18,500 1,350 Climbing Atlanta Center
08:15PM 34.4389 -84.7919 341° North 353 406 19,700 1,250 Climbing Atlanta Center
08:16PM 34.5325 -84.8356 339° North 358 412 21,000 1,250 Climbing Atlanta Center
08:17PM 34.6264 -84.8744 341° North 358 412 22,200 1,200 Climbing Atlanta Center
08:18PM 34.7281 -84.9233 338° Northwest 353 406 23,400 950 Climbing Atlanta Center
08:19PM 34.8069 -85.0000 321° Northwest 353 406 24,100 750 Climbing Atlanta Center
08:20PM 34.8814 -85.0894 315° West 359 413 24,900 700 Climbing Atlanta Center
08:21PM 34.9536 -85.1817 314° West 365 420 25,500 596 Climbing Atlanta Center
08:23PM 35.0453 -85.2956 315° West 381 438 26,300 587 Climbing Memphis Center
08:24PM 35.1214 -85.3914 314° West 389 448 26,900 581 Climbing Memphis Center
08:25PM 35.1986 -85.4869 315° West 391 450 27,500 629 Climbing Memphis Center
08:26PM 35.2900 -85.6031 314° West 391 450 28,200 634 Climbing Memphis Center
08:27PM 35.3675 -85.6986 315° West 391 450 28,800 585 Climbing Memphis Center
08:28PM 35.4425 -85.7947 314° West 391 450 29,400 581 Climbing Memphis Center
08:29PM 35.5183 -85.8900 314° West 391 450 30,000 290 Climbing Memphis Center
08:30PM 35.5958 -85.9881 314° West 393 452 30,000  Level Memphis Center
08:31PM 35.6772 -86.0942 313° West 399 459 30,000  Level Memphis Center
08:32PM 35.7583 -86.1983 314° West 411 473 30,000  Level Memphis Center
08:33PM 35.8400 -86.3022 314° West 415 478 30,000  Level Memphis Center
08:34PM 35.9225 -86.4083 314° West 419 482 30,000  Level Memphis Center
08:35PM 36.0044 -86.5147 314° West 420 483 30,000  Level Memphis Center
08:36PM 36.1025 -86.6347 315° West 421 484 30,000  Level Memphis Center
08:37PM 36.2025 -86.7131 328° Northwest 421 484 30,000  Level Memphis Center
08:38PM 36.2961 -86.7883 327° Northwest 421 484 30,000  Level Memphis Center
08:39PM 36.3944 -86.8683 327° Northwest 421 484 30,000  Level Memphis Center
08:40PM 36.4947 -86.9458 328° Northwest 422 486 30,000  Level Memphis Center
08:41PM 36.6092 -87.0389 327° Northwest 420 483 30,000  Level Memphis Center
08:42PM 36.7064 -87.1175 327° Northwest 419 482 30,000  Level Memphis Center
08:43PM 36.8036 -87.1958 327° Northwest 413 475 30,000  Level Memphis Center
08:44PM 36.8983 -87.2750 326° Northwest 411 473 30,000  Level Memphis Center
08:45PM 36.9953 -87.3533 327° Northwest 410 472 30,000  Level Memphis Center
08:46PM 37.0894 -87.4311 327° Northwest 407 468 30,000  Level Memphis Center
08:47PM 37.1858 -87.5100 327° Northwest 407 468 30,000  Level Memphis Center
08:48PM 37.2797 -87.5881 327° Northwest 407 468 30,000  Level Memphis Center
08:49PM 37.3761 -87.6667 327° Northwest 407 468 30,000  Level Memphis Center
08:50PM 37.4381 -87.7197 326° Northwest 406 467 30,000  Level Indianapolis Center
08:51PM 37.5792 -87.8364 327° Northwest 405 466 30,000  Level Indianapolis Center
08:52PM 37.6733 -87.9142 327° Northwest 405 466 30,000  Level Indianapolis Center
08:53PM 37.7664 -87.9906 327° Northwest 398 458 30,000  Level Indianapolis Center
08:54PM 37.8533 -88.0653 326° Northwest 397 457 30,000  Level Indianapolis Center
08:55PM 37.9469 -88.1436 327° Northwest 398 458 30,000  Level Indianapolis Center
08:57PM 38.0389 -88.2217 326° Northwest 398 458 30,000  Level Indianapolis Center
08:58PM 38.1506 -88.3164 326° Northwest 398 458 30,000  Level Indianapolis Center
08:59PM 38.2428 -88.3947 326° Northwest 398 458 30,000  Level Indianapolis Center
09:00PM 38.3347 -88.4733 326° Northwest 397 457 30,000  Level Indianapolis Center
09:01PM 38.4264 -88.5508 326° Northwest 397 457 30,000  Level Indianapolis Center
09:02PM 38.5167 -88.6300 326° Northwest 395 455 30,000  Level Indianapolis Center
09:03PM 38.6069 -88.7089 326° Northwest 394 453 30,000  Level Indianapolis Center
09:04PM 38.6983 -88.7864 327° Northwest 394 453 30,000  Level Indianapolis Center
09:05PM 38.7892 -88.8656 326° Northwest 393 452 30,000  Level Indianapolis Center
09:06PM 38.8806 -88.9431 327° Northwest 393 452 30,000  Level Indianapolis Center
09:07PM 38.9706 -89.0225 326° Northwest 393 452 30,000  Level Indianapolis Center
09:08PM 39.0614 -89.1017 326° Northwest 393 452 30,000  Level Indianapolis Center
09:09PM 39.1522 -89.1803 326° Northwest 393 452 30,000  Level Indianapolis Center
09:09PM 39.2150 -89.2383 324° Northwest 388 447 30,000  Level Chicago Center
09:10PM 39.2931 -89.3067 326° Northwest 389 448 30,000  Level Kansas City Center
09:11PM 39.3819 -89.3850 326° Northwest 389 448 30,000  Level Kansas City Center
09:12PM 39.4708 -89.4639 326° Northwest 389 448 30,000  Level Kansas City Center
09:13PM 39.5594 -89.5431 325° Northwest 389 448 30,000  Level Kansas City Center
09:14PM 39.6481 -89.6219 326° Northwest 389 448 30,000  Level Kansas City Center
09:15PM 39.7339 -89.6983 326° Northwest 389 448 30,000  Level Kansas City Center
09:16PM 39.8406 -89.7950 325° Northwest 389 448 30,000  Level Kansas City Center
09:17PM 39.9294 -89.8750 325° Northwest 389 448 30,000  Level Kansas City Center
09:18PM 40.0186 -89.9567 325° Northwest 389 448 30,000  Level Kansas City Center
09:19PM 40.1069 -90.0378 325° Northwest 389 448 30,000  Level Kansas City Center
09:20PM 40.1958 -90.1192 325° Northwest 389 448 30,000 -393 Level Kansas City Center
09:22PM 40.2844 -90.1997 325° Northwest 389 448 29,200 -885 Descending Kansas City Center
09:23PM 40.3708 -90.2778 325° Northwest 382 440 28,200 -968 Descending Kansas City Center
09:24PM 40.4572 -90.3572 325° Northwest 377 434 27,200 -968 Descending Kansas City Center
09:25PM 40.5456 -90.4386 325° Northwest 379 436 26,200 -1,041 Descending Kansas City Center
09:26PM 40.6336 -90.5217 324° Northwest 382 440 25,100 -1,016 Descending Kansas City Center
09:27PM 40.7222 -90.6028 325° Northwest 383 441 24,100 -1,056 Descending Kansas City Center
09:28PM 40.8281 -90.7025 325° Northwest 384 442 22,900 -1,082 Descending Kansas City Center
09:29PM 40.9164 -90.7839 325° Northwest 384 442 21,900 -984 Descending Kansas City Center
09:30PM 41.0039 -90.8667 324° Northwest 384 442 20,900 -1,007 Descending Kansas City Center
09:31PM 41.1242 -90.9822 324° Northwest 383 441 19,500 -1,000 Descending Chicago Center
09:32PM 41.2106 -91.0644 324° Northwest 383 441 18,500 -1,113 Descending Chicago Center
09:33PM 41.2961 -91.1439 325° Northwest 380 437 17,200 -1,951 Descending Chicago Center
09:34PM 41.3769 -91.2192 325° Northwest 358 412 14,500 -2,585 Descending Chicago Center
09:35PM 41.4628 -91.2800 332° Northwest 351 404 11,900 -1,839 Descending Chicago Center
09:36PM 41.5453 -91.3397 332° Northwest 320 368 10,700 -1,366 Descending Chicago Center
09:37PM 41.6103 -91.3839 333° Northwest 255 293 9,100 -1,756 Descending Chicago Center
09:38PM 41.6700 -91.4267 332° Northwest 254 292 7,100 -1,951 Descending Chicago Center
09:39PM 41.7292 -91.4700 331° Northwest 249 287 5,100 -1,317 Descending Chicago Center
09:40PM 41.7933 -91.5097 335° Northwest 229 264 4,400 -585 Descending Chicago Center
09:41PM 41.8419 -91.5161 354° North 195 224 3,900 -732 Descending Chicago Center
09:42PM 41.8717 -91.5567 315° West 183 211 2,900 -829 Descending Chicago Center
09:43PM 41.8836 -91.6064 288° West 159 183 2,200 -689 Descending Chicago Center
09:44PM 41.8822 -91.6594 268° West 147 169 1,500 -488 Descending Chicago Center
09:45PM 41.8814 -91.7064 269° West 144 166 1,200 -290 Descending Chicago Center
09:47PM 41.8833 -91.7000 334° Northwest  Level FlightAware Approximate
09:54PM 41.8847 -91.7108 334° Northwest  Level Estimated

Login

Don't have an account? Register now (free) for customized features, flight alerts, and more!